Time;durP1;ratioP1;P1;durP2;ratioP2;P2;SDS_P1;SDS_P2;PMS_P1;PMS_P2;Temp;Humidity;BMP_temperature;BMP_pressure;BME280_temperature;BME280_humidity;BME280_pressure;Samples;Min_cycle;Max_cycle;Signal;HPM_P1;HPM_P2
2021/05/03 00:02:07;;;;;;;4.40;3.13;;;;;;;10.20;81.23;98515.66;5031288;28;20213;-64
2021/05/03 00:04:34;;;;;;;6.13;3.43;;;;;;;9.94;83.43;98513.44;5028174;28;20209;-65
2021/05/03 00:07:02;;;;;;;4.03;2.67;;;;;;;10.05;82.70;98523.66;5024979;28;20250;-66
2021/05/03 00:09:29;;;;;;;3.37;3.00;;;;;;;9.94;83.25;98508.09;5029419;28;20728;-66
2021/05/03 00:11:56;;;;;;;4.87;3.30;;;;;;;9.88;84.99;98516.84;5031757;28;20207;-65
2021/05/03 00:14:22;;;;;;;4.37;3.13;;;;;;;9.65;87.80;98512.63;5026027;28;20206;-66
2021/05/03 00:16:49;;;;;;;3.73;2.70;;;;;;;9.83;86.40;98513.06;5026417;28;20830;-65
2021/05/03 00:19:16;;;;;;;4.53;3.00;;;;;;;9.59;89.40;98508.03;5029643;28;20288;-66
2021/05/03 00:21:43;;;;;;;4.47;2.97;;;;;;;9.49;89.86;98507.47;5031460;28;20211;-66
2021/05/03 00:24:11;;;;;;;4.97;3.20;;;;;;;9.41;89.96;98507.53;5022765;28;20216;-65
2021/05/03 00:26:38;;;;;;;4.03;2.97;;;;;;;9.27;91.31;98514.47;5025883;28;20662;-66
2021/05/03 00:29:05;;;;;;;4.83;3.20;;;;;;;9.35;92.95;98514.41;5025077;28;20206;-66
2021/05/03 00:31:31;;;;;;;5.13;3.23;;;;;;;9.28;94.21;98510.00;5024526;28;20206;-65
2021/05/03 00:33:58;;;;;;;5.17;3.10;;;;;;;9.38;94.00;98518.56;5024720;28;20205;-65
2021/05/03 00:36:25;;;;;;;4.63;3.00;;;;;;;9.33;93.96;98513.75;5024563;28;20213;-65
2021/05/03 00:38:52;;;;;;;3.20;2.60;;;;;;;9.05;94.59;98522.50;5029797;28;20224;-65
2021/05/03 00:41:19;;;;;;;8.47;3.80;;;;;;;9.17;92.97;98524.56;5020507;28;20288;-66
2021/05/03 00:43:46;;;;;;;5.87;3.23;;;;;;;9.11;93.55;98524.44;5028093;28;20209;-66
2021/05/03 00:46:18;;;;;;;4.60;3.23;;;;;;;9.27;91.93;98525.13;5023599;28;20254;-66
2021/05/03 00:48:45;;;;;;;4.27;3.27;;;;;;;9.08;94.70;98527.47;5028774;28;20208;-66
2021/05/03 00:51:12;;;;;;;5.13;3.23;;;;;;;9.32;92.27;98524.59;5022854;28;20827;-65
2021/05/03 00:53:38;;;;;;;3.80;3.07;;;;;;;9.49;91.74;98529.56;5030110;28;20208;-66
2021/05/03 00:56:05;;;;;;;5.53;3.00;;;;;;;9.39;91.77;98531.66;5031209;28;20249;-66
2021/05/03 00:58:34;;;;;;;5.03;3.50;;;;;;;9.62;91.98;98534.28;5025030;28;20272;-65
2021/05/03 01:01:01;;;;;;;4.03;3.00;;;;;;;9.64;91.20;98530.44;5020395;28;20223;-65
2021/05/03 01:03:28;;;;;;;5.00;3.37;;;;;;;9.83;90.06;98532.56;5027329;28;20204;-66
2021/05/03 01:05:55;;;;;;;4.77;3.53;;;;;;;9.62;91.50;98524.47;5026708;28;20319;-66
2021/05/03 01:08:22;;;;;;;7.53;4.13;;;;;;;9.56;92.74;98527.03;5023749;28;20197;-65
2021/05/03 01:10:49;;;;;;;5.07;3.83;;;;;;;9.62;92.06;98535.13;5023395;28;20232;-65
2021/05/03 01:13:15;;;;;;;5.63;3.93;;;;;;;9.52;92.67;98536.38;5027626;28;20207;-65
2021/05/03 01:15:43;;;;;;;7.30;4.40;;;;;;;9.65;92.91;98534.75;5029652;28;20212;-65
2021/05/03 01:18:10;;;;;;;7.00;4.37;;;;;;;9.76;91.56;98538.81;5027125;28;20235;-65
2021/05/03 01:20:38;;;;;;;6.70;4.20;;;;;;;9.68;92.82;98529.06;5016757;28;20221;-65
2021/05/03 01:23:07;;;;;;;7.00;4.40;;;;;;;9.64;93.53;98534.94;5019203;28;20211;-66
2021/05/03 01:25:37;;;;;;;6.93;4.27;;;;;;;9.72;93.30;98535.69;5025872;28;20209;-66
2021/05/03 01:28:05;;;;;;;5.77;4.03;;;;;;;9.69;94.50;98532.56;5029017;28;20277;-66
2021/05/03 01:30:34;;;;;;;7.37;4.57;;;;;;;9.74;93.64;98535.50;5030019;28;20240;-65
2021/05/03 01:33:01;;;;;;;6.60;4.30;;;;;;;9.58;94.78;98536.50;5028914;28;20207;-66
2021/05/03 01:35:28;;;;;;;6.00;4.23;;;;;;;9.65;95.31;98536.59;5022129;28;20624;-66
2021/05/03 01:37:56;;;;;;;7.37;4.03;;;;;;;9.67;95.58;98545.22;5029708;28;20224;-66
2021/05/03 01:40:25;;;;;;;6.67;4.40;;;;;;;9.62;96.16;98542.28;5023804;28;20244;-66
2021/05/03 01:42:52;;;;;;;6.93;4.27;;;;;;;9.48;97.62;98543.09;5022349;28;20578;-65
2021/05/03 01:45:23;;;;;;;7.87;4.40;;;;;;;9.35;99.44;98545.53;5022696;28;20207;-65
2021/05/03 01:47:51;;;;;;;5.83;4.10;;;;;;;9.46;97.85;98547.78;5021806;28;20205;-66
2021/05/03 01:50:19;;;;;;;6.90;4.03;;;;;;;9.35;98.96;98543.72;5030761;28;20226;-65
2021/05/03 01:52:46;;;;;;;6.73;4.60;;;;;;;9.39;98.69;98546.84;5030302;28;20267;-66
2021/05/03 01:55:14;;;;;;;8.03;4.50;;;;;;;9.49;97.96;98547.41;5031655;28;20204;-65
2021/05/03 01:57:42;;;;;;;6.77;4.53;;;;;;;9.38;98.16;98546.00;5033819;28;20231;-66
2021/05/03 02:00:10;;;;;;;6.50;4.77;;;;;;;9.28;98.47;98553.41;5031306;28;20227;-65
2021/05/03 02:02:37;;;;;;;5.90;4.13;;;;;;;9.37;99.98;98549.69;5034608;28;20214;-66
2021/05/03 02:05:04;;;;;;;8.37;5.13;;;;;;;9.55;99.82;98546.69;5032057;28;20254;-65
2021/05/03 02:07:31;;;;;;;15.57;5.13;;;;;;;9.12;100.00;98545.56;5028155;28;20210;-66
2021/05/03 02:09:58;;;;;;;7.40;5.20;;;;;;;9.26;100.00;98550.13;5021687;28;20232;-66
2021/05/03 02:12:25;;;;;;;8.57;4.50;;;;;;;9.29;100.00;98539.09;5023416;28;20596;-65
2021/05/03 02:14:52;;;;;;;8.97;5.17;;;;;;;9.19;100.00;98543.03;5028049;28;20227;-65
2021/05/03 02:17:19;;;;;;;7.17;4.17;;;;;;;9.02;100.00;98544.97;5032906;28;20570;-65
2021/05/03 02:19:46;;;;;;;8.07;5.17;;;;;;;8.85;100.00;98548.78;5029436;28;20592;-64
2021/05/03 02:22:13;;;;;;;8.17;5.13;;;;;;;8.90;100.00;98546.41;5027374;28;20208;-64
2021/05/03 02:24:39;;;;;;;7.27;5.07;;;;;;;8.92;100.00;98546.22;5028300;28;20302;-65
2021/05/03 02:27:09;;;;;;;7.13;4.97;;;;;;;8.80;100.00;98543.16;5032091;28;20230;-65
2021/05/03 02:29:36;;;;;;;9.10;5.93;;;;;;;8.66;100.00;98543.91;5025044;28;20767;-64
2021/05/03 02:32:04;;;;;;;9.10;5.57;;;;;;;8.72;100.00;98551.19;5032868;28;20207;-64
2021/05/03 02:34:30;;;;;;;8.07;5.33;;;;;;;8.65;100.00;98555.56;5025582;28;20650;-64
2021/05/03 02:36:57;;;;;;;10.90;5.03;;;;;;;8.62;100.00;98553.25;5021119;28;20734;-65
2021/05/03 02:39:24;;;;;;;8.40;5.43;;;;;;;8.52;100.00;98554.47;5027780;28;20258;-65
2021/05/03 02:41:51;;;;;;;8.47;5.80;;;;;;;8.36;100.00;98558.03;5024748;28;20204;-65
2021/05/03 02:44:17;;;;;;;12.00;6.07;;;;;;;8.51;100.00;98552.78;5030166;28;20208;-65
2021/05/03 02:46:44;;;;;;;8.30;5.33;;;;;;;8.36;100.00;98552.72;5030915;28;20211;-65
2021/05/03 02:49:12;;;;;;;9.37;5.80;;;;;;;8.37;100.00;98561.53;5019771;28;20199;-65
2021/05/03 02:51:39;;;;;;;9.00;6.20;;;;;;;8.26;100.00;98567.22;5024080;28;20242;-65
2021/05/03 02:54:06;;;;;;;9.40;5.77;;;;;;;8.22;100.00;98568.59;5031367;28;20825;-65
2021/05/03 02:56:33;;;;;;;10.33;5.70;;;;;;;8.29;100.00;98570.38;5030205;28;20239;-65
2021/05/03 02:59:00;;;;;;;8.97;6.63;;;;;;;8.15;100.00;98576.38;5030627;28;20568;-65
2021/05/03 03:01:27;;;;;;;8.57;5.63;;;;;;;8.33;100.00;98563.69;5021229;28;20210;-65
2021/05/03 03:03:53;;;;;;;10.37;6.07;;;;;;;8.26;100.00;98567.22;5026359;28;20219;-65
2021/05/03 03:06:21;;;;;;;9.20;6.27;;;;;;;8.30;100.00;98566.72;5033241;28;20205;-65
2021/05/03 03:08:48;;;;;;;10.97;6.30;;;;;;;8.37;100.00;98570.31;5032869;28;20207;-66
2021/05/03 03:11:15;;;;;;;9.13;5.77;;;;;;;8.40;100.00;98566.50;5029431;28;20223;-65
2021/05/03 03:13:41;;;;;;;8.43;5.17;;;;;;;8.27;100.00;98568.91;5026290;28;20680;-65
2021/05/03 03:16:09;;;;;;;9.70;6.07;;;;;;;8.27;100.00;98556.41;5030475;28;20215;-65
2021/05/03 03:18:35;;;;;;;8.37;5.93;;;;;;;8.33;100.00;98569.00;5019602;28;20240;-65
2021/05/03 03:21:02;;;;;;;8.33;5.77;;;;;;;8.20;100.00;98562.59;5030916;28;20598;-65
2021/05/03 03:23:30;;;;;;;8.90;6.03;;;;;;;8.16;100.00;98572.72;5023669;28;20220;-65
2021/05/03 03:25:57;;;;;;;12.80;6.47;;;;;;;8.11;100.00;98571.56;5021483;28;20208;-65
2021/05/03 03:28:23;;;;;;;9.70;5.70;;;;;;;8.16;100.00;98572.72;5025996;28;20203;-65
2021/05/03 03:30:50;;;;;;;10.13;6.30;;;;;;;8.24;100.00;98572.72;5029205;28;20642;-65
2021/05/03 03:33:17;;;;;;;9.80;6.53;;;;;;;8.38;100.00;98584.47;5021298;28;20214;-66
2021/05/03 03:35:44;;;;;;;9.07;6.27;;;;;;;8.31;100.00;98586.97;5028820;28;20285;-65
2021/05/03 03:38:11;;;;;;;9.57;5.83;;;;;;;8.40;100.00;98588.59;5029952;28;20359;-65
2021/05/03 03:40:38;;;;;;;9.47;6.37;;;;;;;8.30;100.00;98593.31;5032956;28;20273;-65
2021/05/03 03:43:05;;;;;;;10.60;7.10;;;;;;;8.07;100.00;98591.53;5023675;28;20215;-65
2021/05/03 03:45:32;;;;;;;11.23;6.37;;;;;;;8.54;100.00;98593.19;5026497;28;20235;-65
2021/05/03 03:47:59;;;;;;;12.63;7.17;;;;;;;8.54;100.00;98598.53;5030492;28;20209;-65
2021/05/03 03:50:26;;;;;;;11.97;6.80;;;;;;;8.42;100.00;98591.91;5025600;28;20227;-65
2021/05/03 03:52:53;;;;;;;8.93;6.70;;;;;;;8.18;100.00;98589.31;5021054;28;20235;-65
2021/05/03 03:55:20;;;;;;;10.67;6.47;;;;;;;7.98;100.00;98595.19;5025318;28;20705;-65
2021/05/03 03:57:47;;;;;;;12.87;6.30;;;;;;;8.00;100.00;98601.16;5031885;28;20753;-65
2021/05/03 04:00:15;;;;;;;9.13;6.37;;;;;;;8.17;100.00;98597.47;5029446;28;20232;-65
2021/05/03 04:02:44;;;;;;;10.77;6.57;;;;;;;8.07;100.00;98600.31;5023060;28;20651;-65
2021/05/03 04:05:20;;;;;;;10.73;6.03;;;;;;;8.16;100.00;98599.28;5023811;28;20207;-65
2021/05/03 04:07:51;;;;;;;9.80;6.83;;;;;;;8.07;100.00;98602.97;5024044;28;20657;-65
2021/05/03 04:10:30;;;;;;;8.53;6.13;;;;;;;7.77;100.00;98609.03;5027687;28;20782;-65
2021/05/03 04:21:20;;;;;;;10.00;6.13;;;;;;;7.99;100.00;98612.81;5023812;28;20231;-65
2021/05/03 04:23:52;;;;;;;10.70;6.90;;;;;;;7.95;100.00;98614.97;5033845;28;20563;-64
2021/05/03 04:26:20;;;;;;;10.40;6.77;;;;;;;7.80;100.00;98619.31;5025935;28;20277;-64
2021/05/03 04:28:50;;;;;;;11.00;7.03;;;;;;;7.97;100.00;98626.25;5031716;28;20207;-65
2021/05/03 04:31:17;;;;;;;9.33;6.27;;;;;;;7.81;100.00;98622.81;5029031;28;20330;-64
2021/05/03 04:33:44;;;;;;;9.97;6.50;;;;;;;7.75;100.00;98620.81;5028575;28;20693;-64
2021/05/03 04:36:12;;;;;;;11.13;7.27;;;;;;;7.88;100.00;98621.97;5017219;28;20202;-65
2021/05/03 04:38:39;;;;;;;12.27;7.23;;;;;;;7.86;100.00;98621.31;5028611;28;20246;-65
2021/05/03 04:41:06;;;;;;;14.93;7.70;;;;;;;7.91;100.00;98623.47;5028594;28;20633;-65
2021/05/03 04:43:33;;;;;;;14.63;7.60;;;;;;;8.05;100.00;98630.72;5027232;28;20212;-65
2021/05/03 04:46:00;;;;;;;10.57;7.40;;;;;;;8.11;100.00;98628.22;5027895;28;20210;-65
2021/05/03 04:48:27;;;;;;;12.63;6.90;;;;;;;8.15;100.00;98626.88;5026938;28;20211;-65
2021/05/03 04:50:54;;;;;;;13.23;7.77;;;;;;;8.22;100.00;98635.03;5029355;28;20230;-65
2021/05/03 04:53:21;;;;;;;11.23;7.27;;;;;;;8.20;100.00;98635.22;5030695;28;20198;-65
2021/05/03 04:55:48;;;;;;;17.07;7.70;;;;;;;8.34;100.00;98639.00;5020591;28;20239;-65
2021/05/03 04:58:15;;;;;;;18.90;8.43;;;;;;;8.53;100.00;98634.09;5025527;28;20228;-65
2021/05/03 05:00:42;;;;;;;11.30;7.30;;;;;;;8.57;100.00;98645.22;5028121;28;20228;-64
2021/05/03 05:03:10;;;;;;;12.27;7.67;;;;;;;8.75;100.00;98638.66;5021979;28;20215;-64
2021/05/03 05:05:37;;;;;;;11.73;7.63;;;;;;;8.98;100.00;98644.81;5030787;28;20208;-64
2021/05/03 05:08:04;;;;;;;12.10;7.77;;;;;;;9.29;100.00;98642.16;5031181;28;20209;-65
2021/05/03 05:10:31;;;;;;;16.37;7.23;;;;;;;9.44;100.00;98641.19;5028378;28;20255;-65
2021/05/03 05:12:57;;;;;;;11.73;7.33;;;;;;;9.39;100.00;98635.56;5025863;28;20212;-65
2021/05/03 05:15:24;;;;;;;10.80;7.20;;;;;;;9.33;100.00;98638.94;5023627;28;20588;-65
2021/05/03 05:17:51;;;;;;;10.30;7.23;;;;;;;9.47;100.00;98640.84;5019911;28;20235;-65
2021/05/03 05:20:19;;;;;;;17.37;7.27;;;;;;;9.47;100.00;98640.00;5030069;28;20226;-65
2021/05/03 05:22:46;;;;;;;10.50;6.40;;;;;;;9.60;97.70;98629.59;5021047;28;20224;-65
2021/05/03 05:25:13;;;;;;;10.63;6.57;;;;;;;9.21;100.00;98645.69;5020709;28;20204;-67
2021/05/03 05:27:40;;;;;;;10.20;6.50;;;;;;;9.29;99.82;98647.47;5023807;28;20208;-66
2021/05/03 05:30:08;;;;;;;10.40;6.83;;;;;;;9.06;100.00;98652.78;5050926;22;20258;-70
2021/05/03 05:32:35;;;;;;;9.47;6.27;;;;;;;9.47;96.60;98650.66;5030463;28;20238;-80
2021/05/03 05:35:02;;;;;;;9.63;6.30;;;;;;;9.82;93.87;98652.69;5022267;28;20208;-71
2021/05/03 05:37:30;;;;;;;13.43;5.73;;;;;;;10.26;90.81;98646.44;5034362;28;20257;-72
2021/05/03 05:40:00;;;;;;;10.60;6.27;;;;;;;9.55;96.22;98648.75;5033105;28;20201;-71
2021/05/03 05:42:27;;;;;;;10.93;6.20;;;;;;;10.15;89.19;98654.09;4996526;28;20229;-72
2021/05/03 05:44:54;;;;;;;8.13;5.77;;;;;;;10.36;88.06;98655.00;5003929;28;20211;-71
2021/05/03 05:47:20;;;;;;;9.70;5.60;;;;;;;10.40;87.79;98656.28;5009491;28;20300;-69
2021/05/03 05:49:47;;;;;;;9.07;5.27;;;;;;;10.40;87.70;98650.16;5003638;28;20305;-69
2021/05/03 05:52:15;;;;;;;8.90;5.20;;;;;;;10.46;86.41;98650.22;4997997;28;20226;-72
2021/05/03 05:54:43;;;;;;;9.13;5.77;;;;;;;10.53;87.28;98661.81;4997941;28;20582;-67
2021/05/03 05:57:13;;;;;;;7.90;5.57;;;;;;;10.54;85.43;98654.63;5005663;28;20229;-70
2021/05/03 05:59:40;;;;;;;10.90;5.67;;;;;;;10.83;81.60;98671.47;5005290;28;20283;-69
2021/05/03 06:02:07;;;;;;;9.20;5.53;;;;;;;10.65;83.28;98664.88;5005744;28;20274;-70
2021/05/03 06:04:34;;;;;;;7.87;4.90;;;;;;;11.12;79.25;98666.03;5005352;28;20206;-71
2021/05/03 06:07:01;;;;;;;6.87;4.93;;;;;;;11.63;75.69;98672.19;5004571;28;20209;-72
2021/05/03 06:09:28;;;;;;;7.23;4.70;;;;;;;11.86;73.78;98671.97;5009363;28;20279;-72
2021/05/03 06:11:56;;;;;;;6.50;4.90;;;;;;;12.07;72.82;98673.59;5005432;28;20227;-72
2021/05/03 06:14:23;;;;;;;8.10;5.23;;;;;;;11.42;74.59;98675.63;4998212;28;20211;-73
2021/05/03 06:16:49;;;;;;;12.83;5.37;;;;;;;10.47;82.45;98664.41;5010210;28;20214;-72
2021/05/03 06:19:16;;;;;;;8.27;4.90;;;;;;;11.59;77.28;98670.91;5006859;28;20234;-72
2021/05/03 06:21:43;;;;;;;7.80;5.60;;;;;;;11.74;74.96;98669.00;5012151;28;20231;-73
2021/05/03 06:24:10;;;;;;;7.73;5.40;;;;;;;12.13;73.73;98665.81;5007062;28;20295;-70
2021/05/03 06:26:37;;;;;;;8.90;5.43;;;;;;;11.63;75.19;98672.19;5010615;28;20211;-72
2021/05/03 06:29:04;;;;;;;8.60;5.50;;;;;;;10.58;83.98;98661.25;4995545;28;20692;-71
2021/05/03 06:31:32;;;;;;;7.03;4.93;;;;;;;10.93;82.30;98673.03;5008414;28;20233;-72
2021/05/03 06:33:59;;;;;;;7.00;4.60;;;;;;;11.27;80.96;98666.03;5004223;28;20729;-72
2021/05/03 06:36:26;;;;;;;9.40;5.27;;;;;;;10.97;80.20;98665.25;5008348;28;20334;-72
2021/05/03 06:38:52;;;;;;;8.73;5.27;;;;;;;11.45;78.21;98663.72;5008375;28;20610;-72
2021/05/03 06:41:19;;;;;;;8.00;5.30;;;;;;;11.37;77.96;98670.03;5006771;28;20736;-71
2021/05/03 06:43:46;;;;;;;8.40;5.63;;;;;;;11.39;79.47;98660.00;4998447;28;20683;-70
2021/05/03 06:46:14;;;;;;;7.23;4.90;;;;;;;12.52;69.02;98688.31;4997027;28;20262;-71
2021/05/03 06:48:41;;;;;;;7.93;5.13;;;;;;;12.07;70.80;98681.63;5011124;28;20199;-67
2021/05/03 06:51:07;;;;;;;9.90;4.43;;;;;;;12.48;69.19;98684.41;5006784;28;20227;-76
2021/05/03 06:53:34;;;;;;;6.47;4.67;;;;;;;13.41;64.85;98690.00;5007856;28;20791;-70
2021/05/03 06:56:01;;;;;;;5.70;4.23;;;;;;;12.78;66.64;98691.16;5009961;28;20219;-72
2021/05/03 06:58:28;;;;;;;9.63;4.70;;;;;;;12.26;68.93;98696.16;5010809;28;20234;-70
2021/05/03 07:00:55;;;;;;;6.60;4.23;;;;;;;12.92;64.66;98702.78;4992104;28;20378;-69
2021/05/03 07:03:22;;;;;;;9.27;4.50;;;;;;;12.78;64.28;98704.56;4985315;28;20208;-70
2021/05/03 07:05:49;;;;;;;5.50;4.37;;;;;;;12.79;64.65;98698.16;4991653;28;20282;-69
2021/05/03 07:08:18;;;;;;;5.80;4.47;;;;;;;13.46;60.75;98712.50;4989624;28;20214;-70
2021/05/03 07:10:46;;;;;;;9.10;5.27;;;;;;;13.70;60.32;98706.59;4988152;28;20259;-70
2021/05/03 07:13:13;;;;;;;5.47;4.53;;;;;;;13.68;60.69;98710.50;4983822;28;20233;-69
2021/05/03 07:15:41;;;;;;;6.23;4.47;;;;;;;14.22;57.27;98717.38;5004778;28;20607;-70
2021/05/03 07:18:08;;;;;;;7.67;4.47;;;;;;;13.82;59.11;98715.69;5006281;28;20233;-70
2021/05/03 07:20:35;;;;;;;5.77;4.30;;;;;;;12.97;63.03;98705.72;5003119;28;20230;-71
2021/05/03 07:23:05;;;;;;;6.77;4.13;;;;;;;13.70;59.90;98711.09;5011007;28;20216;-70
2021/05/03 07:25:31;;;;;;;5.53;3.93;;;;;;;12.88;59.45;98709.53;5006325;28;20669;-71
2021/05/03 07:27:58;;;;;;;6.70;4.20;;;;;;;13.92;57.44;98704.53;5000810;28;20709;-72
2021/05/03 07:30:25;;;;;;;7.83;4.70;;;;;;;14.38;56.57;98702.75;5004352;28;20233;-72
2021/05/03 07:32:52;;;;;;;8.33;4.30;;;;;;;13.10;59.96;98708.44;5002487;28;20222;-71
2021/05/03 07:35:19;;;;;;;7.20;4.87;;;;;;;13.65;58.75;98708.22;5001623;28;20241;-73
2021/05/03 07:37:47;;;;;;;5.77;4.50;;;;;;;13.47;57.93;98711.47;5007653;28;20200;-71
2021/05/03 07:40:14;;;;;;;7.10;4.43;;;;;;;13.93;54.71;98711.56;5000682;28;20205;-71
2021/05/03 07:42:41;;;;;;;7.27;4.97;;;;;;;14.32;53.62;98708.91;4999364;28;20203;-71
2021/05/03 07:45:10;;;;;;;6.17;4.33;;;;;;;14.18;55.83;98704.56;5008336;28;20306;-72
2021/05/03 07:47:36;;;;;;;6.73;4.10;;;;;;;14.40;55.98;98701.50;5007759;28;20211;-72
2021/05/03 07:50:04;;;;;;;9.17;4.57;;;;;;;14.05;54.50;98710.75;5007039;28;20217;-72
2021/05/03 07:52:31;;;;;;;8.23;4.10;;;;;;;13.80;54.04;98704.34;4997832;28;20257;-72
2021/05/03 07:54:59;;;;;;;6.53;4.60;;;;;;;13.72;54.16;98717.91;5009066;28;20694;-73
2021/05/03 07:57:26;;;;;;;7.50;4.63;;;;;;;14.45;53.97;98709.75;5005298;28;20204;-72
2021/05/03 07:59:53;;;;;;;6.40;4.73;;;;;;;14.34;55.70;98707.66;5001726;28;20231;-70
2021/05/03 08:02:20;;;;;;;7.53;4.63;;;;;;;14.08;56.09;98706.84;5004064;28;20227;-72
2021/05/03 08:04:46;;;;;;;7.17;5.30;;;;;;;14.02;56.41;98704.94;5003781;28;20633;-71
2021/05/03 08:07:13;;;;;;;9.33;4.73;;;;;;;14.01;58.37;98697.94;5004142;28;20214;-71
2021/05/03 08:09:40;;;;;;;6.67;4.87;;;;;;;13.26;61.62;98700.88;5008353;28;20900;-71
2021/05/03 08:12:14;;;;;;;7.43;5.47;;;;;;;13.48;58.61;98706.94;5074430;27;20549;-71
2021/05/03 08:14:41;;;;;;;7.67;4.67;;;;;;;13.28;58.92;98703.38;5072459;28;21028;-71
2021/05/03 08:17:11;;;;;;;7.97;4.83;;;;;;;14.33;55.88;98711.41;5085853;28;20208;-71
2021/05/03 08:19:39;;;;;;;7.97;5.10;;;;;;;13.74;55.69;98718.56;5083241;28;20218;-72
2021/05/03 08:22:06;;;;;;;6.13;4.67;;;;;;;14.28;56.20;98711.19;5083696;28;20222;-69
2021/05/03 08:24:34;;;;;;;7.40;4.47;;;;;;;13.14;57.91;98720.41;5078967;28;20207;-69
2021/05/03 08:27:02;;;;;;;10.13;4.67;;;;;;;13.99;56.21;98714.25;5080410;28;20718;-73
2021/05/03 08:29:30;;;;;;;7.63;5.13;;;;;;;14.58;54.33;98714.28;5080158;28;20606;-72
2021/05/03 08:31:57;;;;;;;6.33;4.80;;;;;;;14.44;53.82;98715.31;5078113;28;20225;-71
2021/05/03 08:34:24;;;;;;;6.13;4.70;;;;;;;14.02;55.39;98713.84;5082275;28;20291;-70
2021/05/03 08:36:53;;;;;;;8.80;5.07;;;;;;;14.77;53.43;98722.28;5083566;28;20230;-70
2021/05/03 08:39:21;;;;;;;8.40;5.13;;;;;;;14.10;55.38;98719.03;5077295;28;20204;-70
2021/05/03 08:41:49;;;;;;;10.60;5.20;;;;;;;14.29;54.97;98715.53;5077091;28;20314;-69
2021/05/03 08:44:15;;;;;;;8.93;4.57;;;;;;;14.93;51.70;98721.00;5086909;28;20212;-70
2021/05/03 08:46:45;;;;;;;11.40;5.27;;;;;;;16.14;47.18;98727.88;5084226;28;20202;-70
2021/05/03 08:49:18;;;;;;;27.03;5.87;;;;;;;14.78;52.51;98723.09;5085443;28;20205;-71
2021/05/03 08:51:49;;;;;;;6.43;4.57;;;;;;;15.20;49.16;98726.09;5080160;28;20233;-72
2021/05/03 08:54:22;;;;;;;5.43;4.33;;;;;;;15.50;48.41;98727.22;5086128;28;20261;-71
2021/05/03 08:56:49;;;;;;;7.60;4.73;;;;;;;15.61;49.07;98712.28;5078994;28;20230;-72
2021/05/03 08:59:16;;;;;;;7.00;4.77;;;;;;;16.10;48.73;98715.88;5082959;28;20350;-69
2021/05/03 09:01:45;;;;;;;15.27;5.70;;;;;;;14.80;53.48;98700.38;5083673;28;20223;-69
2021/05/03 09:04:13;;;;;;;7.60;4.33;;;;;;;14.64;49.72;98713.44;5080031;28;20668;-70
2021/05/03 09:06:40;;;;;;;8.00;4.20;;;;;;;15.64;45.42;98717.22;5085870;28;20258;-70
2021/05/03 09:09:10;;;;;;;6.73;4.70;;;;;;;14.80;47.04;98721.06;5080554;28;20210;-71
2021/05/03 09:11:37;;;;;;;7.20;4.03;;;;;;;15.48;43.61;98725.78;5085128;28;20268;-70
2021/05/03 09:14:08;;;;;;;6.67;4.00;;;;;;;15.26;44.18;98719.03;5074656;28;20778;-70
2021/05/03 09:16:42;;;;;;;6.23;4.77;;;;;;;14.56;51.66;98708.28;5084257;28;20234;-72
2021/05/03 09:19:11;;;;;;;10.07;4.23;;;;;;;15.99;41.43;98734.59;5081973;28;20563;-71
2021/05/03 09:21:39;;;;;;;3.90;3.37;;;;;;;15.95;40.65;98736.09;5084108;28;20224;-71
2021/05/03 09:24:11;;;;;;;4.83;3.50;;;;;;;15.55;41.63;98732.00;5055265;28;20987;-71
2021/05/03 09:26:41;;;;;;;6.80;3.43;;;;;;;14.85;41.36;98729.31;5058335;28;20704;-71
2021/05/03 09:29:27;;;;;;;7.30;3.57;;;;;;;15.09;40.30;98717.88;5064361;28;20204;-72
2021/05/03 09:32:02;;;;;;;11.40;3.70;;;;;;;15.05;41.04;98727.41;5071186;28;20685;-72
2021/05/03 09:34:31;;;;;;;6.37;3.07;;;;;;;16.09;38.01;98737.63;5071139;28;20212;-71
2021/05/03 09:37:17;;;;;;;6.30;3.10;;;;;;;15.80;35.82;98744.47;5066207;28;20206;-71
2021/05/03 09:39:47;;;;;;;4.17;2.93;;;;;;;16.36;34.04;98739.13;5064106;28;20739;-70
2021/05/03 09:42:14;;;;;;;3.60;3.03;;;;;;;17.00;33.72;98751.19;5068799;28;20231;-71
2021/05/03 09:45:01;;;;;;;7.27;3.17;;;;;;;15.92;36.55;98731.16;5069750;28;20760;-72
2021/05/03 09:47:29;;;;;;;5.40;2.67;;;;;;;17.05;35.42;98728.91;5066143;28;20194;-72
2021/05/03 09:49:57;;;;;;;6.30;2.90;;;;;;;15.50;36.69;98726.44;5070465;28;20664;-71
2021/05/03 09:52:25;;;;;;;4.37;3.07;;;;;;;16.57;36.88;98715.31;5064816;28;20268;-72
2021/05/03 09:54:52;;;;;;;4.00;2.77;;;;;;;17.09;34.25;98724.72;5066385;28;20202;-70
2021/05/03 09:57:19;;;;;;;4.43;2.97;;;;;;;16.51;34.61;98726.97;5066630;28;20668;-69
2021/05/03 09:59:48;;;;;;;7.70;2.77;;;;;;;17.13;34.21;98731.34;5068256;28;20212;-70
2021/05/03 10:02:18;;;;;;;3.40;3.03;;;;;;;16.47;36.68;98717.69;5072546;28;20217;-71
2021/05/03 10:05:10;;;;;;;4.17;2.80;;;;;;;16.64;34.65;98726.88;5069762;28;20201;-70
2021/05/03 10:07:39;;;;;;;5.23;2.50;;;;;;;16.92;32.46;98740.66;5057353;28;20224;-71
2021/05/03 10:10:10;;;;;;;5.87;2.80;;;;;;;16.22;33.60;98738.38;5064183;28;20885;-69
2021/05/03 10:12:37;;;;;;;5.07;2.50;;;;;;;16.55;34.38;98732.75;5062288;28;20186;-76
2021/05/03 10:15:08;;;;;;;5.80;3.27;;;;;;;17.31;32.28;98734.84;5062426;28;20216;-71
2021/05/03 10:17:37;;;;;;;4.37;3.00;;;;;;;17.36;32.63;98720.66;5068967;28;20209;-71
2021/05/03 10:20:06;;;;;;;4.23;2.10;;;;;;;17.99;30.86;98735.44;5065380;28;20205;-71
2021/05/03 10:22:34;;;;;;;3.53;2.73;;;;;;;18.18;30.56;98735.13;5067439;28;20197;-70
2021/05/03 10:25:04;;;;;;;5.33;2.47;;;;;;;17.29;30.61;98736.13;5068113;28;20635;-71
2021/05/03 10:27:31;;;;;;;3.33;2.50;;;;;;;17.39;30.54;98741.84;5068672;28;20224;-76
2021/05/03 10:30:12;;;;;;;5.97;2.47;;;;;;;17.57;30.82;98737.25;5075756;28;20283;-73
2021/05/03 10:32:41;;;;;;;6.33;3.00;;;;;;;16.20;33.51;98729.69;5069396;28;20208;-70
2021/05/03 10:35:23;;;;;;;4.53;2.97;;;;;;;16.98;33.49;98714.69;5064588;28;20208;-70
2021/05/03 10:37:51;;;;;;;3.40;2.73;;;;;;;17.80;32.65;98717.63;5063941;28;20205;-71
2021/05/03 10:40:52;;;;;;;8.27;2.67;;;;;;;16.05;35.12;98710.34;5071066;28;20197;-72
2021/05/03 10:43:36;;;;;;;12.27;3.10;;;;;;;16.24;34.58;98703.13;5067392;28;20243;-71
2021/05/03 10:46:14;;;;;;;4.60;2.53;;;;;;;15.95;34.30;98695.72;5063400;28;20583;-70
2021/05/03 10:48:49;;;;;;;5.23;2.40;;;;;;;16.49;33.70;98693.22;5069845;28;20201;-69
2021/05/03 10:51:46;;;;;;;4.00;2.73;;;;;;;16.64;33.29;98689.13;5067125;28;20228;-73
2021/05/03 10:54:49;;;;;;;3.10;2.20;;;;;;;16.71;32.42;98679.09;5062887;28;20200;-73
2021/05/03 10:57:35;;;;;;;4.70;2.50;;;;;;;17.90;31.68;98675.50;5066113;28;20219;-71
2021/05/03 11:00:04;;;;;;;7.30;2.30;;;;;;;16.95;32.27;98680.06;5072272;28;20232;-71
2021/05/03 11:02:45;;;;;;;3.63;2.33;;;;;;;16.74;32.62;98672.44;5073600;28;20223;-71
2021/05/03 11:05:15;;;;;;;3.93;2.60;;;;;;;17.87;29.58;98675.13;5069593;28;20295;-72
2021/05/03 11:08:18;;;;;;;3.03;2.30;;;;;;;17.42;30.57;98672.03;5060311;28;20202;-71
2021/05/03 11:11:07;;;;;;;2.37;2.00;;;;;;;16.68;29.57;98671.47;5063450;28;20232;-71
2021/05/03 11:13:48;;;;;;;1.83;1.30;;;;;;;18.38;29.35;98678.06;5063500;28;20213;-71
2021/05/03 11:16:46;;;;;;;2.97;2.07;;;;;;;17.05;30.50;98680.38;5064801;28;20208;-73
2021/05/03 11:19:38;;;;;;;6.07;2.50;;;;;;;16.60;31.03;98682.53;5064254;28;20212;-71
2021/05/03 11:22:07;;;;;;;3.20;2.30;;;;;;;17.32;30.54;98676.31;5064395;28;20217;-72
2021/05/03 11:24:36;;;;;;;3.00;2.03;;;;;;;17.29;30.11;98687.56;5062674;28;20209;-72
2021/05/03 11:27:07;;;;;;;2.40;1.93;;;;;;;17.54;29.43;98681.03;5062510;28;20210;-72
2021/05/03 11:29:42;;;;;;;4.13;2.10;;;;;;;17.50;29.67;98682.53;5063290;28;20216;-72
2021/05/03 11:32:09;;;;;;;3.40;2.00;;;;;;;17.62;29.24;98677.16;5066958;28;20237;-72
2021/05/03 11:34:46;;;;;;;2.20;1.90;;;;;;;17.93;27.61;98683.13;5058098;28;20270;-70
2021/05/03 11:37:16;;;;;;;3.20;1.60;;;;;;;18.43;27.38;98670.06;5053630;28;20208;-73
2021/05/03 11:39:54;;;;;;;3.70;2.00;;;;;;;16.34;30.99;98661.19;5051296;28;20665;-70
2021/05/03 11:42:35;;;;;;;2.57;1.80;;;;;;;17.03;29.30;98667.09;5050405;28;20768;-72
2021/05/03 11:45:01;;;;;;;3.17;2.00;;;;;;;17.38;28.47;98657.31;5043909;28;20714;-70
2021/05/03 11:47:30;;;;;;;3.70;1.60;;;;;;;17.16;28.36;98655.34;5067791;28;20213;-73
2021/05/03 11:49:57;;;;;;;2.77;1.50;;;;;;;17.65;28.50;98653.25;5068337;28;20210;-73
2021/05/03 11:52:28;;;;;;;1.87;1.67;;;;;;;18.04;27.38;98655.31;5067877;28;20356;-71